createdAt,value
2022-08-11T00:00:21.000Z,22.47
2022-08-11T00:02:54.020Z,22.55
2022-08-11T00:05:14.493Z,22.62
2022-08-11T00:07:28.232Z,22.69
2022-08-11T00:09:42.727Z,22.76
2022-08-11T00:11:59.163Z,22.69
2022-08-11T00:14:20.925Z,22.59
2022-08-11T00:16:34.538Z,22.52
2022-08-11T00:18:50.141Z,22.52
2022-08-11T00:21:04.825Z,22.40
2022-08-11T00:23:21.455Z,22.31
2022-08-11T00:25:35.030Z,22.21
2022-08-11T00:27:48.316Z,22.12
2022-08-11T00:30:01.758Z,22.13
2022-08-11T00:32:19.865Z,22.10
2022-08-11T00:34:35.301Z,22.04
2022-08-11T00:36:55.365Z,22.01
2022-08-11T00:39:13.876Z,21.97
2022-08-11T00:41:35.852Z,21.93
2022-08-11T00:44:11.112Z,21.84
2022-08-11T00:46:35.520Z,21.78
2022-08-11T00:49:03.398Z,21.81
2022-08-11T00:51:27.073Z,21.82
2022-08-11T00:54:15.207Z,21.77
2022-08-11T00:57:09.262Z,21.75
2022-08-11T01:00:03.971Z,21.71
2022-08-11T01:02:30.804Z,21.72
2022-08-11T01:05:17.715Z,21.75
2022-08-11T01:08:02.715Z,21.80
2022-08-11T01:10:37.309Z,21.81
2022-08-11T01:13:08.435Z,21.83
2022-08-11T01:16:11.040Z,21.84
2022-08-11T01:19:04.304Z,21.81
2022-08-11T01:21:55.857Z,21.78
2022-08-11T01:24:47.120Z,21.79
2022-08-11T01:27:39.979Z,21.71
2022-08-11T01:30:41.981Z,21.70
2022-08-11T01:33:57.983Z,21.62
2022-08-11T01:36:45.734Z,21.59
2022-08-11T01:39:31.373Z,21.52
2022-08-11T01:42:29.269Z,21.43
2022-08-11T01:45:14.998Z,21.34
2022-08-11T01:47:55.922Z,21.28
2022-08-11T01:50:18.645Z,21.26
2022-08-11T01:52:43.034Z,21.26
2022-08-11T01:55:06.519Z,21.23
2022-08-11T01:57:32.262Z,21.20
2022-08-11T01:59:51.607Z,21.18
2022-08-11T02:02:44.340Z,21.14
2022-08-11T02:05:15.454Z,21.08
2022-08-11T02:07:36.508Z,20.99
2022-08-11T02:10:25.762Z,20.89
2022-08-11T02:12:56.512Z,20.80
2022-08-11T02:15:16.353Z,20.75
2022-08-11T02:17:49.695Z,20.68
2022-08-11T02:20:30.300Z,20.66
2022-08-11T02:23:11.300Z,20.62
2022-08-11T02:25:33.111Z,20.58
2022-08-11T02:27:51.619Z,20.53
2022-08-11T02:30:09.742Z,20.40
2022-08-11T02:32:45.538Z,20.35
2022-08-11T02:35:11.973Z,20.30
2022-08-11T02:37:30.816Z,20.29
2022-08-11T02:39:50.649Z,20.24
2022-08-11T02:42:35.391Z,20.15
2022-08-11T02:45:10.772Z,20.10
2022-08-11T02:47:40.112Z,20.02
2022-08-11T02:50:07.202Z,19.94
2022-08-11T02:52:34.576Z,19.90
2022-08-11T02:54:55.588Z,19.88
2022-08-11T02:57:16.796Z,19.85
2022-08-11T02:59:53.982Z,19.75
2022-08-11T03:02:18.004Z,19.69
2022-08-11T03:04:39.546Z,19.61
2022-08-11T03:07:02.770Z,19.55
2022-08-11T03:09:28.352Z,19.46
2022-08-11T03:12:15.953Z,19.41
2022-08-11T03:14:57.556Z,19.33
2022-08-11T03:17:22.807Z,19.24
2022-08-11T03:19:48.673Z,19.18
2022-08-11T03:22:11.938Z,19.09
2022-08-11T03:24:32.185Z,19.00
2022-08-11T03:26:56.087Z,18.94
2022-08-11T03:29:18.160Z,18.90
2022-08-11T03:31:31.938Z,18.87
2022-08-11T03:34:07.560Z,18.82
2022-08-11T03:37:16.005Z,18.77
2022-08-11T03:39:35.577Z,18.71
2022-08-11T03:42:03.494Z,18.69
2022-08-11T03:44:28.858Z,18.65
2022-08-11T03:47:00.071Z,18.61
2022-08-11T03:49:31.794Z,18.60
2022-08-11T03:51:55.668Z,18.55
2022-08-11T03:54:21.916Z,18.47
2022-08-11T03:57:06.909Z,18.40
2022-08-11T03:59:47.924Z,18.32
2022-08-11T04:02:24.205Z,18.25
2022-08-11T04:05:18.007Z,18.19
2022-08-11T04:08:14.076Z,18.16
2022-08-11T04:11:03.510Z,18.12
2022-08-11T04:14:21.271Z,18.06
2022-08-11T04:16:50.724Z,18.00
2022-08-11T04:19:41.279Z,17.93
2022-08-11T04:22:36.286Z,17.82
2022-08-11T04:25:25.146Z,17.73
2022-08-11T04:28:18.910Z,17.67
2022-08-11T04:31:10.180Z,17.59
2022-08-11T04:33:44.796Z,17.53
2022-08-11T04:36:13.393Z,17.47
2022-08-11T04:38:49.215Z,17.42
2022-08-11T04:41:35.680Z,17.36
2022-08-11T04:44:19.867Z,17.27
2022-08-11T04:46:52.831Z,17.18
2022-08-11T04:49:44.904Z,17.12
2022-08-11T04:52:42.732Z,17.06
2022-08-11T04:55:30.299Z,17.00
2022-08-11T04:58:07.552Z,16.98
2022-08-11T05:00:37.760Z,16.94
2022-08-11T05:03:34.468Z,16.87
2022-08-11T05:06:25.976Z,16.82
2022-08-11T05:09:22.096Z,16.75
2022-08-11T05:12:05.960Z,16.67
2022-08-11T05:14:55.796Z,16.58
2022-08-11T05:17:32.056Z,16.49
2022-08-11T05:20:05.470Z,16.41
2022-08-11T05:22:43.651Z,16.34
2022-08-11T05:26:42.985Z,16.29
2022-08-11T05:28:29.622Z,16.21
2022-08-11T05:31:02.823Z,16.13
2022-08-11T05:33:38.266Z,16.08
2022-08-11T05:36:00.131Z,16.00
2022-08-11T05:38:38.581Z,15.94
2022-08-11T05:41:16.663Z,15.89
2022-08-11T05:44:21.769Z,15.85
2022-08-11T05:46:36.384Z,15.82
2022-08-11T05:49:07.771Z,15.79
2022-08-11T05:51:39.107Z,15.76
2022-08-11T05:54:28.221Z,15.75
2022-08-11T05:56:53.308Z,15.73
2022-08-11T05:59:06.883Z,15.71
2022-08-11T06:01:25.889Z,15.69
2022-08-11T06:03:59.991Z,15.66
2022-08-11T06:06:14.983Z,15.61
2022-08-11T06:08:37.092Z,15.58
2022-08-11T06:10:51.090Z,15.54
2022-08-11T06:13:06.230Z,15.49
2022-08-11T06:15:20.173Z,15.45
2022-08-11T06:17:38.473Z,15.41
2022-08-11T06:20:06.126Z,15.33
2022-08-11T06:22:26.237Z,15.26
2022-08-11T06:24:41.382Z,15.19
2022-08-11T06:27:12.445Z,15.15
2022-08-11T06:29:37.945Z,15.13
2022-08-11T06:32:04.266Z,15.10
2022-08-11T06:34:28.087Z,15.08
2022-08-11T06:36:48.433Z,15.05
2022-08-11T06:39:13.095Z,15.04
2022-08-11T06:41:35.537Z,15.03
2022-08-11T06:43:56.472Z,15.02
2022-08-11T06:46:13.393Z,15.01
2022-08-11T06:48:43.525Z,15.01
2022-08-11T06:51:16.277Z,15.00
2022-08-11T06:53:36.585Z,14.99
2022-08-11T06:56:08.425Z,14.97
2022-08-11T06:58:40.822Z,14.95
2022-08-11T07:01:00.318Z,14.94
2022-08-11T07:03:15.698Z,14.94
2022-08-11T07:05:36.468Z,14.93
2022-08-11T07:08:52.590Z,14.94
2022-08-11T07:11:46.425Z,14.92
2022-08-11T07:14:19.154Z,14.90
2022-08-11T07:16:41.721Z,14.86
2022-08-11T07:19:16.579Z,14.82
2022-08-11T07:22:03.157Z,14.81
2022-08-11T07:24:59.577Z,14.81
2022-08-11T07:27:39.315Z,14.80
2022-08-11T07:29:55.565Z,14.80
2022-08-11T07:32:25.903Z,14.82
2022-08-11T07:34:43.847Z,14.83
2022-08-11T07:36:59.686Z,14.83
2022-08-11T07:39:24.151Z,14.82
2022-08-11T07:41:40.532Z,14.81
2022-08-11T07:44:11.051Z,14.76
2022-08-11T07:46:41.477Z,14.73
2022-08-11T07:49:11.687Z,14.71
2022-08-11T07:51:42.348Z,14.68
2022-08-11T07:53:58.606Z,14.66
2022-08-11T07:56:23.332Z,14.65
2022-08-11T07:59:11.388Z,14.65
2022-08-11T08:01:44.293Z,14.67
2022-08-11T08:04:14.345Z,14.70
2022-08-11T08:06:44.550Z,14.73
2022-08-11T08:09:15.022Z,14.73
2022-08-11T08:11:46.596Z,14.71
2022-08-11T08:14:16.425Z,14.69
2022-08-11T08:16:46.330Z,14.66
2022-08-11T08:18:59.627Z,14.62
2022-08-11T08:21:16.811Z,14.61
2022-08-11T08:23:36.015Z,14.59
2022-08-11T08:25:50.544Z,14.57
2022-08-11T08:28:05.619Z,14.56
2022-08-11T08:30:37.111Z,14.51
2022-08-11T08:32:50.287Z,14.48
2022-08-11T08:35:04.449Z,14.45
2022-08-11T08:37:45.883Z,14.41
2022-08-11T08:39:51.750Z,14.38
2022-08-11T08:42:08.250Z,14.35
2022-08-11T08:44:40.893Z,14.33
2022-08-11T08:46:58.243Z,14.30
2022-08-11T08:49:14.120Z,14.26
2022-08-11T08:52:02.440Z,14.23
2022-08-11T08:54:16.248Z,14.20
2022-08-11T08:56:34.840Z,14.18
2022-08-11T08:58:51.518Z,14.15
2022-08-11T09:01:06.420Z,14.12
2022-08-11T09:03:41.866Z,14.11
2022-08-11T09:05:57.498Z,14.08
2022-08-11T09:08:11.607Z,14.08
2022-08-11T09:10:26.475Z,14.06
2022-08-11T09:12:41.942Z,14.07
2022-08-11T09:15:05.762Z,14.05
2022-08-11T09:17:19.052Z,14.03
2022-08-11T09:19:32.554Z,14.01
2022-08-11T09:22:13.733Z,13.98
2022-08-11T09:24:43.895Z,13.94
2022-08-11T09:27:04.211Z,13.89
2022-08-11T09:29:17.409Z,13.87
2022-08-11T09:31:39.739Z,13.87
2022-08-11T09:33:57.270Z,13.87
2022-08-11T09:36:24.543Z,13.87
2022-08-11T09:38:54.027Z,13.86
2022-08-11T09:41:10.381Z,13.86
2022-08-11T09:43:42.273Z,13.85
2022-08-11T09:45:56.530Z,13.85
2022-08-11T09:48:10.816Z,13.86
2022-08-11T09:50:24.419Z,13.87
2022-08-11T09:52:57.216Z,13.86
2022-08-11T09:55:17.337Z,13.85
2022-08-11T09:57:48.378Z,13.85
2022-08-11T10:00:12.181Z,13.83
2022-08-11T10:02:31.462Z,13.81
2022-08-11T10:04:47.380Z,13.78
2022-08-11T10:07:05.203Z,13.75
2022-08-11T10:09:22.235Z,13.73
2022-08-11T10:11:38.447Z,13.72
2022-08-11T10:14:33.778Z,13.69
2022-08-11T10:16:44.330Z,13.65
2022-08-11T10:18:58.625Z,13.63
2022-08-11T10:21:14.292Z,13.60
2022-08-11T10:24:00.542Z,13.57
2022-08-11T10:26:36.055Z,13.54
2022-08-11T10:29:11.598Z,13.53
2022-08-11T10:31:57.913Z,13.50
2022-08-11T10:34:14.350Z,13.47
2022-08-11T10:36:27.929Z,13.45
2022-08-11T10:38:41.403Z,13.44
2022-08-11T10:41:14.737Z,13.43
2022-08-11T10:44:02.825Z,13.44
2022-08-11T10:46:17.452Z,13.43
2022-08-11T10:48:43.583Z,13.41
2022-08-11T10:51:13.647Z,13.40
2022-08-11T10:53:44.394Z,13.39
2022-08-11T10:56:13.974Z,13.38
2022-08-11T10:58:44.073Z,13.38
2022-08-11T11:01:00.017Z,13.40
2022-08-11T11:03:22.775Z,13.42
2022-08-11T11:06:28.164Z,13.43
2022-08-11T11:08:30.653Z,13.45
2022-08-11T11:10:46.479Z,13.45
2022-08-11T11:13:23.500Z,13.43
2022-08-11T11:15:55.569Z,13.43
2022-08-11T11:18:12.769Z,13.41
2022-08-11T11:20:34.511Z,13.38
2022-08-11T11:22:53.585Z,13.34
2022-08-11T11:25:14.055Z,13.32
2022-08-11T11:27:36.282Z,13.29
2022-08-11T11:30:09.856Z,13.26
2022-08-11T11:32:33.535Z,13.23
2022-08-11T11:35:17.564Z,13.20
2022-08-11T11:37:34.338Z,13.17
2022-08-11T11:39:48.150Z,13.15
2022-08-11T11:42:04.281Z,13.14
2022-08-11T11:44:18.381Z,13.12
2022-08-11T11:46:38.881Z,13.11
2022-08-11T11:48:53.640Z,13.10
2022-08-11T11:51:07.316Z,13.09
2022-08-11T11:53:21.496Z,13.09
2022-08-11T11:55:35.418Z,13.08
2022-08-11T11:58:06.483Z,13.07
2022-08-11T12:00:39.216Z,13.05
2022-08-11T12:02:55.309Z,13.04
2022-08-11T12:05:09.427Z,13.03
2022-08-11T12:07:39.856Z,13.03
2022-08-11T12:09:53.633Z,13.02
2022-08-11T12:12:23.156Z,13.01
2022-08-11T12:14:36.798Z,12.99
2022-08-11T12:16:51.279Z,12.99
2022-08-11T12:19:07.058Z,12.99
2022-08-11T12:21:21.439Z,13.00
2022-08-11T12:23:52.184Z,13.01
2022-08-11T12:26:27.280Z,13.00
2022-08-11T12:28:43.646Z,12.99
2022-08-11T12:30:58.021Z,12.98
2022-08-11T12:33:11.391Z,12.99
2022-08-11T12:35:25.275Z,12.98
2022-08-11T12:37:41.207Z,12.99
2022-08-11T12:40:42.133Z,12.97
2022-08-11T12:43:06.095Z,12.97
2022-08-11T12:45:35.249Z,12.99
2022-08-11T12:48:40.144Z,12.99
2022-08-11T12:50:57.100Z,13.00
2022-08-11T12:53:13.380Z,12.98
2022-08-11T12:55:43.162Z,12.98
2022-08-11T12:58:20.477Z,12.98
2022-08-11T13:00:51.647Z,12.98
2022-08-11T13:03:22.134Z,12.99
2022-08-11T13:05:44.306Z,13.00
2022-08-11T13:07:58.450Z,13.00
2022-08-11T13:10:16.757Z,13.00
2022-08-11T13:12:51.046Z,12.99
2022-08-11T13:15:05.907Z,12.99
2022-08-11T13:17:40.278Z,12.98
2022-08-11T13:19:57.845Z,12.97
2022-08-11T13:22:11.461Z,12.97
2022-08-11T13:24:25.460Z,12.98
2022-08-11T13:26:49.436Z,12.99
2022-08-11T13:29:03.332Z,13.02
2022-08-11T13:31:17.089Z,13.04
2022-08-11T13:33:31.618Z,13.06
2022-08-11T13:35:45.223Z,13.04
2022-08-11T13:38:18.740Z,13.02
2022-08-11T13:40:54.761Z,13.03
2022-08-11T13:43:06.152Z,13.05
2022-08-11T13:45:19.707Z,13.07
2022-08-11T13:47:34.531Z,13.09
2022-08-11T13:49:52.836Z,13.11
2022-08-11T13:52:06.398Z,13.14
2022-08-11T13:54:25.358Z,13.17
2022-08-11T13:56:40.941Z,13.20
2022-08-11T13:58:54.141Z,13.22
2022-08-11T14:02:03.539Z,13.24
2022-08-11T14:04:30.389Z,13.29
2022-08-11T14:06:21.493Z,13.33
2022-08-11T14:08:40.232Z,13.36
2022-08-11T14:12:20.439Z,13.39
2022-08-11T14:13:48.500Z,13.41
2022-08-11T14:16:05.962Z,13.43
2022-08-11T14:18:25.562Z,13.47
2022-08-11T14:20:57.373Z,13.51
2022-08-11T14:23:12.091Z,13.52
2022-08-11T14:26:00.564Z,13.54
2022-08-11T14:28:32.463Z,13.60
2022-08-11T14:30:50.031Z,13.65
2022-08-11T14:33:14.281Z,13.70
2022-08-11T14:35:31.662Z,13.77
2022-08-11T14:37:45.668Z,13.86
2022-08-11T14:40:04.098Z,13.98
2022-08-11T14:42:37.696Z,14.10
2022-08-11T14:45:09.825Z,14.23
2022-08-11T14:47:25.602Z,14.41
2022-08-11T14:49:49.194Z,14.55
2022-08-11T14:52:17.320Z,14.71
2022-08-11T14:54:50.034Z,14.85
2022-08-11T14:57:04.425Z,14.98
2022-08-11T14:59:17.955Z,15.08
2022-08-11T15:02:00.329Z,15.19
2022-08-11T15:04:34.455Z,15.31
2022-08-11T15:06:46.910Z,15.40
2022-08-11T15:09:00.006Z,15.45
2022-08-11T15:11:34.348Z,15.54
2022-08-11T15:13:47.611Z,15.67
2022-08-11T15:16:29.111Z,15.78
2022-08-11T15:18:43.742Z,15.92
2022-08-11T15:21:13.195Z,16.05
2022-08-11T15:23:42.622Z,16.18
2022-08-11T15:26:01.055Z,16.32
2022-08-11T15:28:34.189Z,16.46
2022-08-11T15:31:04.957Z,16.59
2022-08-11T15:33:38.135Z,16.68
2022-08-11T15:36:07.378Z,16.74
2022-08-11T15:38:23.409Z,16.76
2022-08-11T15:40:56.077Z,16.80
2022-08-11T15:43:31.480Z,16.83
2022-08-11T15:45:52.250Z,16.89
2022-08-11T15:48:11.354Z,16.91
2022-08-11T15:50:25.870Z,16.95
2022-08-11T15:52:45.591Z,16.99
2022-08-11T15:55:03.555Z,16.99
2022-08-11T15:57:40.078Z,17.02
2022-08-11T16:00:10.198Z,17.07
2022-08-11T16:02:44.411Z,17.10
2022-08-11T16:04:58.881Z,17.12
2022-08-11T16:07:15.489Z,17.16
2022-08-11T16:09:47.606Z,17.20
2022-08-11T16:12:08.786Z,17.24
2022-08-11T16:14:39.484Z,17.27
2022-08-11T16:16:57.304Z,17.31
2022-08-11T16:19:12.430Z,17.33
2022-08-11T16:21:34.946Z,17.37
2022-08-11T16:23:51.161Z,17.40
2022-08-11T16:27:09.452Z,17.43
2022-08-11T16:28:42.146Z,17.46
2022-08-11T16:30:57.468Z,17.47
2022-08-11T16:33:48.890Z,17.47
2022-08-11T16:36:03.651Z,17.52
2022-08-11T16:38:33.604Z,17.60
2022-08-11T16:40:48.555Z,17.60
2022-08-11T16:43:19.723Z,17.59
2022-08-11T16:45:50.531Z,17.63
2022-08-11T16:48:35.044Z,17.65
2022-08-11T16:50:39.521Z,17.70
2022-08-11T16:52:53.579Z,17.71
2022-08-11T16:55:07.030Z,17.72
2022-08-11T16:57:37.124Z,17.73
2022-08-11T16:59:56.087Z,17.75
2022-08-11T17:02:15.642Z,17.81
2022-08-11T17:04:55.763Z,17.86
2022-08-11T17:07:40.217Z,17.90
2022-08-11T17:10:39.679Z,17.94
2022-08-11T17:13:12.317Z,17.93
2022-08-11T17:15:46.403Z,17.91
2022-08-11T17:18:06.194Z,17.90
2022-08-11T17:20:41.764Z,17.92
2022-08-11T17:23:13.342Z,17.97
2022-08-11T17:25:29.447Z,18.04
2022-08-11T17:27:44.128Z,18.12
2022-08-11T17:29:59.602Z,18.22
2022-08-11T17:32:55.883Z,18.27
2022-08-11T17:35:32.147Z,18.33
2022-08-11T17:37:46.959Z,18.35
2022-08-11T17:40:01.357Z,18.37
2022-08-11T17:42:33.366Z,18.41
2022-08-11T17:45:07.539Z,18.47
2022-08-11T17:47:37.844Z,18.58
2022-08-11T17:49:51.325Z,18.68
2022-08-11T17:52:21.217Z,18.74
2022-08-11T17:54:51.152Z,18.85
2022-08-11T17:57:21.661Z,18.85
2022-08-11T17:59:51.396Z,18.85
2022-08-11T18:02:20.961Z,18.89
2022-08-11T18:04:48.297Z,18.98
2022-08-11T18:07:02.403Z,19.04
2022-08-11T18:09:39.137Z,19.13
2022-08-11T18:12:12.217Z,19.22
2022-08-11T18:14:43.796Z,19.20
2022-08-11T18:17:13.346Z,19.18
2022-08-11T18:19:42.796Z,19.18
2022-08-11T18:22:16.043Z,19.18
2022-08-11T18:24:50.189Z,19.19
2022-08-11T18:27:23.247Z,19.27
2022-08-11T18:29:56.341Z,19.34
2022-08-11T18:32:46.246Z,19.39
2022-08-11T18:35:18.474Z,19.42
2022-08-11T18:37:52.952Z,19.45
2022-08-11T18:40:27.524Z,19.49
2022-08-11T18:43:00.316Z,19.55
2022-08-11T18:45:30.936Z,19.61
2022-08-11T18:48:19.715Z,19.57
2022-08-11T18:51:29.540Z,19.61
2022-08-11T18:53:39.815Z,19.61
2022-08-11T18:56:11.002Z,19.66
2022-08-11T18:58:47.211Z,19.71
2022-08-11T19:01:19.307Z,19.77
2022-08-11T19:03:50.735Z,19.84
2022-08-11T19:06:38.214Z,19.92
2022-08-11T19:09:22.012Z,20.02
2022-08-11T19:11:52.789Z,20.02
2022-08-11T19:14:23.936Z,20.05
2022-08-11T19:16:54.676Z,20.06
2022-08-11T19:19:24.981Z,20.13
2022-08-11T19:21:56.611Z,20.17
2022-08-11T19:24:28.122Z,20.20
2022-08-11T19:26:58.520Z,20.22
2022-08-11T19:30:05.046Z,20.25
2022-08-11T19:32:21.645Z,20.34
2022-08-11T19:34:51.550Z,20.35
2022-08-11T19:37:24.772Z,20.38
2022-08-11T19:39:54.788Z,20.51
2022-08-11T19:42:27.073Z,20.57
2022-08-11T19:44:57.262Z,20.59
2022-08-11T19:47:28.172Z,20.62
2022-08-11T19:49:59.533Z,20.63
2022-08-11T19:52:29.817Z,20.67
2022-08-11T19:55:00.828Z,20.70
2022-08-11T19:57:33.396Z,20.71
2022-08-11T20:00:06.393Z,20.76
2022-08-11T20:02:35.708Z,20.77
2022-08-11T20:05:14.200Z,20.81
2022-08-11T20:07:46.148Z,20.90
2022-08-11T20:10:18.139Z,20.96
2022-08-11T20:12:54.187Z,20.95
2022-08-11T20:15:34.925Z,20.98
2022-08-11T20:18:01.881Z,20.99
2022-08-11T20:20:33.603Z,21.04
2022-08-11T20:23:05.963Z,21.03
2022-08-11T20:25:36.950Z,21.10
2022-08-11T20:28:08.476Z,21.17
2022-08-11T20:30:38.302Z,21.20
2022-08-11T20:33:09.101Z,21.25
2022-08-11T20:35:41.098Z,21.25
2022-08-11T20:38:13.814Z,21.26
2022-08-11T20:40:45.662Z,21.24
2022-08-11T20:44:08.206Z,21.23
2022-08-11T20:46:09.322Z,21.23
2022-08-11T20:48:42.336Z,21.22
2022-08-11T20:51:16.465Z,21.30
2022-08-11T20:53:48.805Z,21.33
2022-08-11T20:56:21.376Z,21.34
2022-08-11T20:59:14.400Z,21.34
2022-08-11T21:01:52.209Z,21.36
2022-08-11T21:04:22.986Z,21.35
2022-08-11T21:06:56.053Z,21.39
2022-08-11T21:09:58.667Z,21.36
2022-08-11T21:12:20.163Z,21.32
2022-08-11T21:14:51.332Z,21.35
2022-08-11T21:17:27.708Z,21.44
2022-08-11T21:20:10.929Z,21.55
2022-08-11T21:22:59.314Z,21.52
2022-08-11T21:25:37.895Z,21.60
2022-08-11T21:28:09.800Z,21.64
2022-08-11T21:30:40.045Z,21.66
2022-08-11T21:33:10.302Z,21.62
2022-08-11T21:35:45.111Z,21.63
2022-08-11T21:38:16.196Z,21.71
2022-08-11T21:40:47.820Z,21.73
2022-08-11T21:43:20.230Z,21.70
2022-08-11T21:45:51.527Z,21.65
2022-08-11T21:48:23.665Z,21.71
2022-08-11T21:50:53.164Z,21.72
2022-08-11T21:53:22.961Z,21.69
2022-08-11T21:55:52.844Z,21.68
2022-08-11T21:58:22.845Z,21.65
2022-08-11T22:00:53.344Z,21.65
2022-08-11T22:03:24.057Z,21.59
2022-08-11T22:05:56.751Z,21.73
2022-08-11T22:08:27.141Z,21.84
2022-08-11T22:10:56.952Z,21.93
2022-08-11T22:13:26.082Z,22.00
2022-08-11T22:15:56.099Z,22.00
2022-08-11T22:18:25.766Z,21.94
2022-08-11T22:20:57.297Z,21.98
2022-08-11T22:23:27.012Z,22.04
2022-08-11T22:26:07.321Z,21.99
2022-08-11T22:28:42.270Z,22.02
2022-08-11T22:31:11.865Z,22.12
2022-08-11T22:34:02.173Z,22.18
2022-08-11T22:36:33.593Z,22.25
2022-08-11T22:39:04.688Z,22.32
2022-08-11T22:41:33.985Z,22.34
2022-08-11T22:44:03.475Z,22.24
2022-08-11T22:46:34.051Z,22.26
2022-08-11T22:49:05.604Z,22.34
2022-08-11T22:51:37.581Z,22.41
2022-08-11T22:54:07.005Z,22.35
2022-08-11T22:56:36.840Z,22.32
2022-08-11T22:59:06.561Z,22.29
2022-08-11T23:01:39.494Z,22.35
2022-08-11T23:04:25.642Z,22.42
2022-08-11T23:06:57.848Z,22.48
2022-08-11T23:09:28.466Z,22.49
2022-08-11T23:12:06.636Z,22.38
2022-08-11T23:14:39.517Z,22.26
2022-08-11T23:17:09.796Z,22.16
2022-08-11T23:20:06.836Z,22.13
2022-08-11T23:22:49.506Z,22.04
2022-08-11T23:25:19.970Z,22.02
2022-08-11T23:27:50.795Z,22.09
2022-08-11T23:30:21.601Z,22.13
2022-08-11T23:32:52.266Z,22.13
2022-08-11T23:35:39.086Z,22.13
2022-08-11T23:38:10.982Z,22.08
2022-08-11T23:40:40.428Z,22.12
2022-08-11T23:43:09.720Z,22.11
2022-08-11T23:45:39.692Z,22.16
2022-08-11T23:48:10.048Z,22.24
2022-08-11T23:50:40.607Z,22.32
2022-08-11T23:53:10.111Z,22.38
2022-08-11T23:55:40.318Z,22.41
2022-08-11T23:58:10.520Z,22.40
